Time;durP1;ratioP1;P1;durP2;ratioP2;P2;SDS_P1;SDS_P2;PMS_P1;PMS_P2;Temp;Humidity;BMP_temperature;BMP_pressure;BME280_temperature;BME280_humidity;BME280_pressure;Samples;Min_cycle;Max_cycle;Signal;HPM_P1;HPM_P2
2020/12/06 05:20:11;;;;;;;7.60;4.85;;;4.10;99.90;;;;;;4995357;23;20056;-69
2020/12/06 05:22:45;;;;;;;5.55;4.25;;;4.10;99.90;;;;;;4918958;29;20051;-69
2020/12/06 05:25:16;;;;;;;8.98;4.32;;;4.10;99.90;;;;;;4918893;29;20115;-69
2020/12/06 05:27:43;;;;;;;5.63;4.03;;;4.00;99.90;;;;;;4918958;29;20032;-69
2020/12/06 05:30:09;;;;;;;5.82;3.88;;;4.10;99.90;;;;;;4918442;29;20039;-69
2020/12/06 05:32:35;;;;;;;4.78;4.03;;;4.10;99.90;;;;;;4918673;29;20475;-72
2020/12/06 05:35:02;;;;;;;5.07;3.85;;;4.10;99.90;;;;;;4918446;29;20075;-71
2020/12/06 05:37:28;;;;;;;5.03;3.65;;;4.10;99.90;;;;;;4918327;29;20028;-69
2020/12/06 05:40:01;;;;;;;4.45;3.63;;;4.10;99.90;;;;;;4918568;29;20039;-71
2020/12/06 05:42:27;;;;;;;4.03;3.08;;;4.10;99.90;;;;;;4918291;29;20534;-70
2020/12/06 05:44:56;;;;;;;4.47;3.58;;;4.30;99.90;;;;;;4918085;29;20040;-71
2020/12/06 05:47:22;;;;;;;4.38;3.20;;;4.60;99.90;;;;;;4914286;29;20021;-71
2020/12/06 05:49:48;;;;;;;5.10;3.42;;;4.60;99.90;;;;;;4904199;29;20068;-69
2020/12/06 05:52:18;;;;;;;3.88;3.33;;;4.50;99.90;;;;;;4899403;29;20031;-71
2020/12/06 05:54:44;;;;;;;6.97;3.80;;;4.40;99.90;;;;;;4908325;29;20063;-70
2020/12/06 05:57:14;;;;;;;3.70;3.20;;;4.40;99.90;;;;;;4907802;29;20028;-70
2020/12/06 05:59:40;;;;;;;5.53;3.28;;;4.40;99.90;;;;;;4908164;29;20020;-75
2020/12/06 06:02:07;;;;;;;9.50;5.65;;;4.30;99.90;;;;;;4907214;29;20024;-74
2020/12/06 06:04:40;;;;;;;9.60;5.30;;;4.30;99.90;;;;;;4908244;29;20514;-74
2020/12/06 06:07:19;;;;;;;8.45;3.88;;;4.30;99.90;;;;;;4909813;29;20077;-75
2020/12/06 06:10:06;;;;;;;6.70;3.47;;;4.30;99.90;;;;;;4908559;29;20483;-74
2020/12/06 06:12:42;;;;;;;3.97;3.15;;;4.30;99.90;;;;;;4907767;29;20028;-74
2020/12/06 06:15:08;;;;;;;4.30;3.03;;;4.30;99.90;;;;;;4908901;29;20060;-74
2020/12/06 06:17:34;;;;;;;7.07;3.13;;;4.20;99.90;;;;;;4907560;29;20063;-74
2020/12/06 06:20:00;;;;;;;4.45;3.42;;;4.30;99.90;;;;;;4907058;29;20048;-74
2020/12/06 06:22:38;;;;;;;5.20;3.05;;;4.30;99.90;;;;;;4909065;29;20459;-75
2020/12/06 06:25:05;;;;;;;4.55;3.30;;;4.30;99.90;;;;;;4916797;29;20040;-74
2020/12/06 06:27:36;;;;;;;3.20;2.72;;;4.30;99.90;;;;;;4917727;29;20115;-69
2020/12/06 06:30:06;;;;;;;4.13;3.05;;;4.30;99.90;;;;;;4917422;29;20028;-69
2020/12/06 06:32:33;;;;;;;6.50;2.92;;;4.40;99.90;;;;;;4917400;29;20476;-68
2020/12/06 06:35:05;;;;;;;5.15;3.38;;;4.40;99.90;;;;;;4917648;29;20028;-68
2020/12/06 06:37:32;;;;;;;4.90;3.00;;;4.30;99.90;;;;;;4917360;29;20103;-68
2020/12/06 06:40:04;;;;;;;3.63;2.80;;;4.30;99.90;;;;;;4917491;29;20080;-68
2020/12/06 06:42:31;;;;;;;4.47;2.63;;;4.30;99.90;;;;;;4917439;29;20028;-69
2020/12/06 06:45:09;;;;;;;2.75;2.38;;;4.80;99.90;;;;;;4917342;29;20039;-77
2020/12/06 06:47:40;;;;;;;2.20;2.00;;;5.50;99.90;;;;;;4917045;29;20091;-76
2020/12/06 06:50:07;;;;;;;6.32;2.10;;;5.40;99.90;;;;;;4917181;29;20059;-75
2020/12/06 06:52:34;;;;;;;2.88;2.05;;;5.20;99.90;;;;;;4917119;29;20127;-74
2020/12/06 06:55:00;;;;;;;2.30;1.83;;;5.00;99.90;;;;;;4911406;29;20055;-78
2020/12/06 06:57:31;;;;;;;2.35;2.15;;;4.80;99.90;;;;;;4906303;29;20507;-79
2020/12/06 06:59:58;;;;;;;3.20;2.45;;;4.80;99.90;;;;;;4907684;29;20024;-77
2020/12/06 07:02:26;;;;;;;2.83;1.70;;;4.70;99.90;;;;;;4908856;29;20103;-78
2020/12/06 07:04:52;;;;;;;1.38;1.20;;;4.60;99.90;;;;;;4907604;29;20044;-76
2020/12/06 07:07:46;;;;;;;1.02;0.93;;;4.60;99.90;;;;;;4898229;29;20024;-74
2020/12/06 07:10:15;;;;;;;1.13;1.10;;;4.60;99.90;;;;;;4897939;29;20543;-76
2020/12/06 07:12:53;;;;;;;1.10;1.00;;;4.60;99.90;;;;;;4897735;29;20518;-74
2020/12/06 07:15:21;;;;;;;1.17;1.08;;;4.60;99.90;;;;;;4898183;29;20361;-72
2020/12/06 07:17:47;;;;;;;1.05;0.98;;;4.60;99.90;;;;;;4906757;29;20036;-76
2020/12/06 07:20:15;;;;;;;1.33;1.20;;;4.50;99.90;;;;;;4906056;29;20044;-75
2020/12/06 07:22:42;;;;;;;1.15;0.95;;;4.50;99.90;;;;;;4905590;29;20033;-75
2020/12/06 07:25:09;;;;;;;1.00;1.00;;;4.50;99.90;;;;;;4908255;29;20510;-75
2020/12/06 07:27:36;;;;;;;0.90;0.80;;;4.50;99.90;;;;;;4916578;29;20028;-76
2020/12/06 07:30:08;;;;;;;1.17;1.00;;;4.50;99.90;;;;;;4916479;29;20388;-79
2020/12/06 07:32:35;;;;;;;0.90;0.90;;;4.50;99.90;;;;;;4903054;29;20029;-76
2020/12/06 07:35:01;;;;;;;1.10;1.00;;;4.50;99.90;;;;;;4893873;29;20123;-80
2020/12/06 07:37:27;;;;;;;2.03;0.70;;;4.50;99.90;;;;;;4919088;29;20054;-77
2020/12/06 07:39:53;;;;;;;0.68;0.68;;;4.50;99.90;;;;;;4930971;29;20023;-79
2020/12/06 07:42:25;;;;;;;1.42;1.08;;;4.60;99.90;;;;;;4934885;29;20082;-74
2020/12/06 07:44:56;;;;;;;1.25;0.90;;;4.60;99.90;;;;;;4915670;29;20087;-74
2020/12/06 07:47:23;;;;;;;0.98;0.98;;;4.60;99.90;;;;;;4915529;29;20035;-75
2020/12/06 07:49:50;;;;;;;4.95;1.42;;;4.60;99.90;;;;;;4915050;29;20025;-69
2020/12/06 07:52:21;;;;;;;9.68;2.80;;;4.80;99.90;;;;;;4899446;29;20032;-70
2020/12/06 07:55:00;;;;;;;3.92;1.83;;;5.50;99.90;;;;;;4901444;29;20460;-69
2020/12/06 07:57:37;;;;;;;1.45;1.08;;;6.30;99.90;;;;;;4896503;29;20062;-69
2020/12/06 08:00:12;;;;;;;0.80;0.80;;;6.70;99.90;;;;;;4897217;29;20028;-69
2020/12/06 08:03:06;;;;;;;0.70;0.70;;;6.60;99.90;;;;;;4896168;29;20088;-69
2020/12/06 08:05:39;;;;;;;1.10;0.82;;;6.80;99.90;;;;;;4896144;29;20057;-69
2020/12/06 08:08:12;;;;;;;2.50;0.98;;;6.90;99.90;;;;;;4928295;29;20034;-70
2020/12/06 08:10:40;;;;;;;1.00;0.90;;;6.90;99.90;;;;;;4934463;29;20065;-69
2020/12/06 08:13:10;;;;;;;0.77;0.77;;;6.70;99.90;;;;;;4934559;29;20027;-69
2020/12/06 08:15:36;;;;;;;0.70;0.70;;;6.70;99.90;;;;;;4934617;29;20024;-68
2020/12/06 08:18:11;;;;;;;0.95;0.95;;;6.60;99.90;;;;;;4933560;29;20042;-68
2020/12/06 08:20:37;;;;;;;0.98;0.80;;;6.80;99.90;;;;;;4934205;29;20071;-68
2020/12/06 08:23:03;;;;;;;3.10;1.10;;;6.80;99.90;;;;;;4931361;29;20056;-68
2020/12/06 08:25:33;;;;;;;2.30;1.15;;;6.80;99.90;;;;;;4893507;29;20092;-68
2020/12/06 08:28:01;;;;;;;1.00;0.90;;;6.80;99.90;;;;;;4898194;29;20020;-68
2020/12/06 08:30:28;;;;;;;1.23;1.13;;;7.00;99.90;;;;;;4906032;29;20040;-69
2020/12/06 08:33:03;;;;;;;3.38;1.35;;;7.00;99.90;;;;;;4918914;29;20107;-69
2020/12/06 08:35:48;;;;;;;3.53;1.40;;;7.20;99.90;;;;;;4924198;29;20023;-69
2020/12/06 08:38:33;;;;;;;1.20;1.08;;;7.40;99.90;;;;;;4920613;29;20532;-69
2020/12/06 08:41:11;;;;;;;1.60;1.17;;;7.40;99.90;;;;;;4919161;29;20148;-69
2020/12/06 08:44:05;;;;;;;1.00;0.95;;;7.40;99.90;;;;;;4918933;29;20032;-70
2020/12/06 08:46:32;;;;;;;1.42;1.20;;;7.30;99.90;;;;;;4918896;29;20028;-70
2020/12/06 08:49:00;;;;;;;1.02;1.00;;;7.20;99.90;;;;;;4919137;29;20020;-70
2020/12/06 08:51:33;;;;;;;2.67;1.38;;;7.10;99.90;;;;;;4908586;29;20063;-70
2020/12/06 08:54:01;;;;;;;2.35;1.63;;;7.10;99.90;;;;;;4900169;29;20027;-70
2020/12/06 08:56:33;;;;;;;3.10;1.40;;;7.20;99.90;;;;;;4900155;29;20071;-69
2020/12/06 08:59:11;;;;;;;2.67;1.52;;;7.20;99.90;;;;;;4900204;29;20033;-73
2020/12/06 09:01:53;;;;;;;1.77;1.60;;;7.00;99.90;;;;;;4900224;29;20036;-73
2020/12/06 09:04:20;;;;;;;2.38;1.52;;;6.60;99.90;;;;;;4910109;29;20039;-76
2020/12/06 09:06:47;;;;;;;4.53;1.98;;;6.30;99.90;;;;;;4937379;29;20507;-74
2020/12/06 09:09:13;;;;;;;4.68;2.28;;;6.10;99.90;;;;;;4906207;29;20036;-72
2020/12/06 09:11:40;;;;;;;5.30;2.08;;;6.30;99.90;;;;;;4900757;29;20392;-75
2020/12/06 09:14:06;;;;;;;2.83;2.00;;;6.40;99.90;;;;;;4918770;29;20036;-74
2020/12/06 09:16:31;;;;;;;2.55;1.90;;;6.30;99.90;;;;;;4918495;29;20056;-74
2020/12/06 09:18:58;;;;;;;4.00;1.63;;;6.10;99.90;;;;;;4918021;29;20454;-74
2020/12/06 09:21:23;;;;;;;3.70;1.52;;;5.90;99.90;;;;;;4918713;29;20035;-74
2020/12/06 09:23:50;;;;;;;2.38;1.58;;;5.70;99.90;;;;;;4918257;29;20423;-74
2020/12/06 09:26:15;;;;;;;2.15;1.85;;;5.50;99.90;;;;;;4918539;29;20067;-74
2020/12/06 09:28:41;;;;;;;2.15;1.90;;;5.50;99.90;;;;;;4905065;29;20452;-74
2020/12/06 09:31:07;;;;;;;2.70;1.67;;;5.50;99.90;;;;;;4899701;29;20064;-74
2020/12/06 09:33:33;;;;;;;3.05;2.20;;;5.40;99.90;;;;;;4899559;29;20388;-74
2020/12/06 09:36:00;;;;;;;3.33;2.25;;;5.40;99.90;;;;;;4904083;29;20032;-76
2020/12/06 09:38:26;;;;;;;3.58;2.78;;;5.40;99.90;;;;;;4915680;29;20135;-75
2020/12/06 09:40:52;;;;;;;2.05;1.80;;;5.40;99.90;;;;;;4918350;29;20119;-75
2020/12/06 09:43:18;;;;;;;4.13;2.55;;;5.40;99.90;;;;;;4914412;29;20116;-75
2020/12/06 09:45:44;;;;;;;2.67;2.00;;;5.30;99.90;;;;;;4915422;29;20040;-75
2020/12/06 09:48:13;;;;;;;3.25;2.10;;;5.30;99.90;;;;;;4918326;29;20030;-75
2020/12/06 09:50:39;;;;;;;3.17;2.28;;;5.30;99.90;;;;;;4905166;29;20036;-75
2020/12/06 09:53:06;;;;;;;3.20;2.47;;;5.30;99.90;;;;;;4917692;29;20043;-75
2020/12/06 09:55:31;;;;;;;2.55;2.20;;;5.30;99.90;;;;;;4912138;29;20032;-75
2020/12/06 09:57:57;;;;;;;3.08;2.20;;;5.30;99.90;;;;;;4918375;29;20028;-76
2020/12/06 10:00:23;;;;;;;7.47;2.90;;;5.30;99.90;;;;;;4918118;29;20452;-76
2020/12/06 10:02:49;;;;;;;3.60;2.40;;;5.30;99.90;;;;;;4918210;29;20039;-76
2020/12/06 10:05:14;;;;;;;2.80;2.28;;;5.20;99.90;;;;;;4918161;29;20127;-75
2020/12/06 10:07:40;;;;;;;3.08;2.35;;;5.20;99.90;;;;;;4918089;29;20468;-76
2020/12/06 10:10:07;;;;;;;6.50;2.72;;;5.20;99.90;;;;;;4917984;29;20439;-79
2020/12/06 10:12:32;;;;;;;8.50;2.63;;;5.20;99.90;;;;;;4917245;29;20031;-76
2020/12/06 10:14:58;;;;;;;3.03;2.53;;;5.50;99.90;;;;;;4913024;29;20028;-74
2020/12/06 10:17:25;;;;;;;2.70;2.20;;;5.60;99.90;;;;;;4898961;29;20527;-73
2020/12/06 10:19:51;;;;;;;3.47;2.40;;;5.50;99.90;;;;;;4899507;29;20060;-73
2020/12/06 10:22:16;;;;;;;5.15;2.47;;;5.50;99.90;;;;;;4901901;29;20032;-73
2020/12/06 10:24:42;;;;;;;3.30;2.30;;;5.30;99.90;;;;;;4898263;29;20045;-72
2020/12/06 10:27:08;;;;;;;4.60;2.40;;;5.30;99.90;;;;;;4907834;29;20024;-71
2020/12/06 10:29:34;;;;;;;4.03;2.50;;;5.30;99.90;;;;;;4910289;29;20033;-71
2020/12/06 10:32:00;;;;;;;2.97;2.35;;;5.40;99.90;;;;;;4906414;29;20027;-71
2020/12/06 10:34:27;;;;;;;4.05;2.40;;;5.40;99.90;;;;;;4907954;29;20032;-70
2020/12/06 10:36:55;;;;;;;2.72;1.98;;;5.40;99.90;;;;;;4908370;29;20035;-71
2020/12/06 10:39:21;;;;;;;3.28;2.42;;;5.30;99.90;;;;;;4907330;29;20424;-71
2020/12/06 10:41:50;;;;;;;3.15;1.92;;;5.20;99.90;;;;;;4907043;29;20033;-72
2020/12/06 10:44:17;;;;;;;3.50;2.25;;;5.20;99.90;;;;;;4906399;29;20051;-73
2020/12/06 10:46:43;;;;;;;5.40;2.22;;;5.20;99.90;;;;;;4904961;29;20024;-72
2020/12/06 10:49:09;;;;;;;3.58;2.28;;;5.20;99.90;;;;;;4902720;29;20361;-72
2020/12/06 10:51:37;;;;;;;3.42;1.77;;;5.20;99.90;;;;;;4904608;29;20032;-72
2020/12/06 10:54:02;;;;;;;5.03;2.50;;;5.20;99.90;;;;;;4915421;29;20036;-69
2020/12/06 10:56:29;;;;;;;3.13;2.15;;;5.30;99.90;;;;;;4906295;29;20415;-69
2020/12/06 10:58:55;;;;;;;4.07;2.25;;;5.30;99.90;;;;;;4907874;29;20052;-68
2020/12/06 11:01:28;;;;;;;3.40;2.60;;;5.30;99.90;;;;;;4908272;29;20492;-71
2020/12/06 11:03:55;;;;;;;2.90;2.00;;;5.30;99.90;;;;;;4906125;29;20051;-72
2020/12/06 11:06:25;;;;;;;2.75;1.88;;;5.40;99.90;;;;;;4908215;29;20375;-71
2020/12/06 11:08:51;;;;;;;4.97;2.38;;;5.40;99.90;;;;;;4905220;29;20056;-71
2020/12/06 11:11:18;;;;;;;3.30;2.28;;;5.40;99.90;;;;;;4908990;29;20036;-72
2020/12/06 11:13:45;;;;;;;6.35;2.20;;;5.40;99.90;;;;;;4907735;29;20163;-72
2020/12/06 11:16:19;;;;;;;3.90;2.17;;;5.40;99.90;;;;;;4908080;29;20036;-71
2020/12/06 11:18:45;;;;;;;3.05;1.85;;;5.30;99.90;;;;;;4906874;29;20515;-71
2020/12/06 11:21:13;;;;;;;2.55;2.10;;;5.30;99.90;;;;;;4905046;29;20043;-71
2020/12/06 11:23:39;;;;;;;5.30;2.05;;;5.30;99.90;;;;;;4904447;29;20036;-71
2020/12/06 11:26:05;;;;;;;2.45;2.00;;;5.30;99.90;;;;;;4897866;29;20039;-71
2020/12/06 11:28:30;;;;;;;3.58;2.35;;;5.40;99.90;;;;;;4897893;29;20048;-71
2020/12/06 11:30:56;;;;;;;4.53;2.42;;;5.40;99.90;;;;;;4880667;29;20029;-71
2020/12/06 11:33:22;;;;;;;5.57;2.70;;;5.40;99.90;;;;;;4897769;29;20050;-72
2020/12/06 11:35:48;;;;;;;2.33;2.10;;;5.40;99.90;;;;;;4897355;29;20021;-72
2020/12/06 11:38:14;;;;;;;1.80;1.63;;;5.30;99.90;;;;;;4899800;29;20040;-72
2020/12/06 11:40:41;;;;;;;2.00;1.80;;;5.30;99.90;;;;;;4907139;29;20433;-72
2020/12/06 11:43:07;;;;;;;2.95;2.15;;;5.20;99.90;;;;;;4906264;29;20473;-72
2020/12/06 11:45:35;;;;;;;2.50;2.20;;;5.20;99.90;;;;;;4909112;29;20043;-71
2020/12/06 11:48:01;;;;;;;2.65;2.10;;;5.20;99.90;;;;;;4905917;29;20085;-72
2020/12/06 11:50:27;;;;;;;3.20;2.50;;;5.10;99.90;;;;;;4903432;29;20033;-72
2020/12/06 11:52:53;;;;;;;3.45;2.20;;;5.10;99.90;;;;;;4894176;29;20059;-70
2020/12/06 11:55:18;;;;;;;6.60;2.10;;;5.10;99.90;;;;;;4906185;29;20119;-71
2020/12/06 11:57:44;;;;;;;3.88;2.08;;;5.10;99.90;;;;;;4906462;29;20092;-71
2020/12/06 12:00:10;;;;;;;3.00;2.22;;;5.10;99.90;;;;;;4911759;29;20059;-70
2020/12/06 12:02:36;;;;;;;5.30;2.35;;;5.10;99.90;;;;;;4905972;29;20044;-71
2020/12/06 12:05:02;;;;;;;3.65;2.50;;;5.20;99.90;;;;;;4896423;29;20044;-71
2020/12/06 12:07:28;;;;;;;3.53;2.10;;;5.10;99.90;;;;;;4896995;29;20028;-73
2020/12/06 12:09:54;;;;;;;4.65;2.47;;;5.10;99.90;;;;;;4896521;29;20096;-75
2020/12/06 12:12:19;;;;;;;3.67;2.35;;;5.20;99.90;;;;;;4896657;29;20123;-75
2020/12/06 12:14:45;;;;;;;5.18;2.90;;;5.20;99.90;;;;;;4896502;29;20036;-75
2020/12/06 12:17:11;;;;;;;3.97;2.50;;;5.20;99.90;;;;;;4896530;29;20033;-75
2020/12/06 12:19:37;;;;;;;4.32;2.97;;;5.20;99.90;;;;;;4898596;29;20123;-73
2020/12/06 12:22:02;;;;;;;3.95;2.75;;;5.20;99.90;;;;;;4906871;29;20036;-73
2020/12/06 12:24:28;;;;;;;5.70;2.80;;;5.20;99.90;;;;;;4929600;29;20046;-73
2020/12/06 12:27:00;;;;;;;3.85;2.92;;;5.30;99.90;;;;;;4934296;29;20567;-73
2020/12/06 12:29:27;;;;;;;3.95;3.08;;;5.30;99.90;;;;;;4934300;29;20059;-74
2020/12/06 12:31:53;;;;;;;3.47;2.80;;;5.30;99.90;;;;;;4934526;29;20047;-72
2020/12/06 12:34:18;;;;;;;7.07;2.90;;;5.30;99.90;;;;;;4934857;29;20059;-72
2020/12/06 12:36:44;;;;;;;6.70;3.22;;;5.40;99.90;;;;;;4934356;29;20031;-74
2020/12/06 12:39:11;;;;;;;7.07;2.80;;;5.30;99.90;;;;;;4910377;29;20117;-73
2020/12/06 12:41:37;;;;;;;4.65;3.08;;;5.30;99.90;;;;;;4906471;29;20106;-72
2020/12/06 12:44:05;;;;;;;4.43;3.08;;;5.30;99.90;;;;;;4896649;29;20029;-73
2020/12/06 12:46:32;;;;;;;5.43;3.25;;;5.30;99.90;;;;;;4896667;29;20073;-73
2020/12/06 12:48:58;;;;;;;3.85;3.00;;;5.30;99.90;;;;;;4895055;29;20366;-73
2020/12/06 12:51:26;;;;;;;6.50;3.40;;;5.40;99.90;;;;;;4896173;29;20039;-72
2020/12/06 12:53:56;;;;;;;6.25;3.83;;;5.40;99.90;;;;;;4896828;29;20036;-72
2020/12/06 12:56:22;;;;;;;6.55;3.78;;;5.30;99.90;;;;;;4896610;29;20028;-73
2020/12/06 12:58:48;;;;;;;4.97;3.15;;;5.30;99.90;;;;;;4906480;29;20033;-72
2020/12/06 13:01:14;;;;;;;6.35;3.53;;;5.30;99.90;;;;;;4905455;29;20038;-72
2020/12/06 13:03:40;;;;;;;6.00;3.80;;;5.30;99.90;;;;;;4904863;29;20028;-71
2020/12/06 13:06:05;;;;;;;5.78;3.83;;;5.30;99.90;;;;;;4906314;29;20115;-70
2020/12/06 13:08:31;;;;;;;4.60;3.33;;;5.30;99.90;;;;;;4905243;29;20048;-70
2020/12/06 13:11:00;;;;;;;6.90;4.07;;;5.50;99.90;;;;;;4903566;29;20337;-71
2020/12/06 13:13:26;;;;;;;6.72;4.45;;;5.50;99.90;;;;;;4912032;29;20051;-72
2020/12/06 13:15:52;;;;;;;5.05;3.70;;;5.40;99.90;;;;;;4914017;29;20468;-71
2020/12/06 13:18:17;;;;;;;8.93;3.33;;;5.40;99.90;;;;;;4915492;29;20028;-72
2020/12/06 13:20:43;;;;;;;5.07;3.38;;;5.50;99.90;;;;;;4917297;29;20032;-70
2020/12/06 13:23:09;;;;;;;3.78;3.13;;;5.70;99.90;;;;;;4925658;29;20043;-71
2020/12/06 13:25:34;;;;;;;6.70;3.40;;;5.70;99.90;;;;;;4937096;29;20082;-71
2020/12/06 13:28:00;;;;;;;4.93;3.15;;;5.60;99.90;;;;;;4936895;29;20357;-70
2020/12/06 13:30:26;;;;;;;5.88;3.67;;;5.50;99.90;;;;;;4936606;29;20038;-74
2020/12/06 13:32:51;;;;;;;5.07;3.72;;;5.40;99.90;;;;;;4937544;29;20028;-70
2020/12/06 13:35:17;;;;;;;4.50;3.17;;;5.50;99.90;;;;;;4937450;29;20395;-70
2020/12/06 13:37:43;;;;;;;3.88;3.10;;;5.60;99.90;;;;;;4937479;29;20055;-70
2020/12/06 13:40:09;;;;;;;3.92;2.72;;;5.90;99.90;;;;;;4937401;29;20031;-71
2020/12/06 13:42:35;;;;;;;5.35;3.22;;;6.40;99.90;;;;;;4937768;29;20071;-70
2020/12/06 13:45:00;;;;;;;3.40;2.63;;;6.80;99.90;;;;;;4937156;29;20515;-70
2020/12/06 13:47:26;;;;;;;4.28;2.53;;;7.10;99.90;;;;;;4920279;29;20048;-70
2020/12/06 13:49:52;;;;;;;2.72;2.13;;;7.10;99.90;;;;;;4918820;29;20039;-78
2020/12/06 13:52:18;;;;;;;3.83;2.55;;;7.00;99.90;;;;;;4918163;29;20444;-78
2020/12/06 13:54:43;;;;;;;3.47;2.63;;;6.70;99.90;;;;;;4918068;29;20032;-76
2020/12/06 13:57:09;;;;;;;2.75;2.38;;;6.40;99.90;;;;;;4915124;29;20031;-78
2020/12/06 13:59:35;;;;;;;4.03;2.40;;;6.30;99.90;;;;;;4918073;29;20032;-75
2020/12/06 14:02:01;;;;;;;3.03;2.15;;;6.20;99.90;;;;;;4918259;29;20047;-75
2020/12/06 14:04:27;;;;;;;4.15;2.60;;;6.10;99.90;;;;;;4917956;29;20483;-74
2020/12/06 14:06:54;;;;;;;5.35;2.55;;;6.10;99.90;;;;;;4917901;29;20089;-75
2020/12/06 14:09:22;;;;;;;3.10;2.40;;;6.00;99.90;;;;;;4906494;29;20425;-75
2020/12/06 14:11:54;;;;;;;3.13;2.58;;;5.90;99.90;;;;;;4907867;29;20119;-70
2020/12/06 14:14:20;;;;;;;3.95;2.40;;;5.80;99.90;;;;;;4899329;29;20076;-78
2020/12/06 14:16:51;;;;;;;3.58;2.75;;;5.80;99.90;;;;;;4898912;29;20028;-78
2020/12/06 14:19:17;;;;;;;3.80;2.67;;;5.80;99.90;;;;;;4898933;29;20052;-77
2020/12/06 14:21:43;;;;;;;11.70;3.67;;;5.70;99.90;;;;;;4898817;29;20115;-79
2020/12/06 14:24:09;;;;;;;3.95;2.75;;;5.70;99.90;;;;;;4898913;29;20584;-79
2020/12/06 14:26:35;;;;;;;4.50;2.70;;;5.60;99.90;;;;;;4898765;29;20103;-79
2020/12/06 14:29:01;;;;;;;6.43;3.05;;;5.60;99.90;;;;;;4898438;29;20055;-78
2020/12/06 14:31:27;;;;;;;4.85;2.97;;;5.60;99.90;;;;;;4898635;29;20032;-78
2020/12/06 14:33:53;;;;;;;6.97;2.88;;;5.60;99.90;;;;;;4898665;29;20043;-78
2020/12/06 14:36:23;;;;;;;5.22;2.65;;;5.50;99.90;;;;;;4898711;29;20362;-78
2020/12/06 14:38:49;;;;;;;4.50;2.97;;;5.60;99.90;;;;;;4897269;29;20388;-78
2020/12/06 14:41:16;;;;;;;3.88;2.90;;;5.50;99.90;;;;;;4898473;29;20063;-78
2020/12/06 14:43:42;;;;;;;5.43;3.13;;;5.50;99.90;;;;;;4898475;29;20028;-78
2020/12/06 14:46:08;;;;;;;4.82;3.15;;;5.40;99.90;;;;;;4898413;29;20369;-82
2020/12/06 14:48:34;;;;;;;6.47;3.10;;;5.50;99.90;;;;;;4898580;29;20048;-82
2020/12/06 14:51:00;;;;;;;7.90;3.50;;;5.40;99.90;;;;;;4898158;29;20523;-83
2020/12/06 14:53:26;;;;;;;5.97;2.97;;;5.40;99.90;;;;;;4898576;29;20029;-83
2020/12/06 14:55:52;;;;;;;4.07;3.20;;;5.40;99.90;;;;;;4898236;29;20149;-85
2020/12/06 14:58:17;;;;;;;7.03;3.63;;;5.40;99.90;;;;;;4898249;29;20025;-83
2020/12/06 15:00:43;;;;;;;5.75;3.47;;;5.30;99.90;;;;;;4898273;29;20032;-83
2020/12/06 15:03:09;;;;;;;5.13;3.25;;;5.30;99.90;;;;;;4898203;29;20036;-77
2020/12/06 15:05:34;;;;;;;6.25;3.08;;;5.30;99.90;;;;;;4897818;29;20044;-79
2020/12/06 15:08:00;;;;;;;7.18;3.63;;;5.30;99.90;;;;;;4897978;29;20049;-81
2020/12/06 15:10:26;;;;;;;6.25;3.58;;;5.20;99.90;;;;;;4897938;29;20041;-79
2020/12/06 15:12:52;;;;;;;7.32;3.58;;;5.20;99.90;;;;;;4907784;29;20099;-79
2020/12/06 15:15:17;;;;;;;8.93;3.90;;;5.30;99.90;;;;;;4898225;29;20039;-81
2020/12/06 15:17:43;;;;;;;6.25;3.80;;;5.30;99.90;;;;;;4896382;29;20547;-79
2020/12/06 15:20:09;;;;;;;5.05;3.00;;;5.40;99.90;;;;;;4897617;29;20143;-79
2020/12/06 15:22:34;;;;;;;4.63;2.88;;;5.30;99.90;;;;;;4897708;29;20025;-79
2020/12/06 15:25:00;;;;;;;7.18;3.63;;;5.30;99.90;;;;;;4897768;29;20071;-79
2020/12/06 15:27:27;;;;;;;5.13;3.45;;;5.30;99.90;;;;;;4897006;29;20054;-80
2020/12/06 15:29:52;;;;;;;5.50;3.35;;;5.20;99.90;;;;;;4897529;29;20028;-80
2020/12/06 15:32:18;;;;;;;5.97;3.22;;;5.20;99.90;;;;;;4897574;29;20048;-81
2020/12/06 15:34:44;;;;;;;5.55;3.10;;;5.20;99.90;;;;;;4897734;29;20033;-81
2020/12/06 15:37:10;;;;;;;7.25;3.45;;;5.20;99.90;;;;;;4897664;29;20021;-80
2020/12/06 15:39:36;;;;;;;5.47;3.17;;;5.20;99.90;;;;;;4897454;29;20068;-80
2020/12/06 15:42:02;;;;;;;6.43;3.25;;;5.20;99.90;;;;;;4897201;29;20025;-81
2020/12/06 15:44:29;;;;;;;5.05;3.47;;;5.20;99.90;;;;;;4897465;29;20123;-81
2020/12/06 15:46:55;;;;;;;5.88;3.50;;;5.20;99.90;;;;;;4897340;29;20021;-80
2020/12/06 15:49:22;;;;;;;3.97;3.13;;;5.20;99.90;;;;;;4897422;29;20397;-80
2020/12/06 15:51:50;;;;;;;9.07;3.13;;;5.20;99.90;;;;;;4897523;29;20056;-81
2020/12/06 15:54:16;;;;;;;7.75;3.42;;;5.20;99.90;;;;;;4897481;29;20473;-83
2020/12/06 15:56:41;;;;;;;5.63;3.42;;;5.20;99.90;;;;;;4897179;29;20056;-83
2020/12/06 15:59:07;;;;;;;6.60;3.80;;;5.20;99.90;;;;;;4897331;29;20024;-75
2020/12/06 16:01:33;;;;;;;8.13;3.42;;;5.20;99.90;;;;;;4897378;29;20033;-75
2020/12/06 16:03:59;;;;;;;7.28;3.55;;;5.20;99.90;;;;;;4900882;29;20036;-74
2020/12/06 16:06:25;;;;;;;6.68;3.22;;;5.20;99.90;;;;;;4920061;29;20050;-75
2020/12/06 16:08:51;;;;;;;9.55;3.85;;;5.20;99.90;;;;;;4920771;29;20029;-74
2020/12/06 16:11:18;;;;;;;6.20;4.03;;;5.20;99.90;;;;;;4912365;29;20096;-72
2020/12/06 16:13:45;;;;;;;6.70;3.45;;;5.20;99.90;;;;;;4901777;29;20020;-74
2020/12/06 16:16:13;;;;;;;5.60;3.58;;;5.20;99.90;;;;;;4906320;29;20039;-74
2020/12/06 16:18:39;;;;;;;6.97;4.30;;;5.20;99.90;;;;;;4905264;29;20091;-73
2020/12/06 16:21:07;;;;;;;7.22;3.58;;;5.20;99.90;;;;;;4906246;29;20111;-73
2020/12/06 16:23:33;;;;;;;8.18;4.20;;;5.20;99.90;;;;;;4906338;29;20169;-74
2020/12/06 16:26:04;;;;;;;5.53;3.50;;;5.20;99.90;;;;;;4909055;29;20123;-72
2020/12/06 16:28:30;;;;;;;11.65;4.18;;;5.20;99.90;;;;;;4903093;29;20584;-74
2020/12/06 16:30:57;;;;;;;11.50;4.68;;;5.20;99.90;;;;;;4904565;29;20052;-74
2020/12/06 16:33:23;;;;;;;10.18;4.00;;;5.20;99.90;;;;;;4907505;29;20032;-73
2020/12/06 16:35:50;;;;;;;7.38;4.55;;;5.20;99.90;;;;;;4906786;29;20020;-73
2020/12/06 16:38:16;;;;;;;5.82;4.00;;;5.20;99.90;;;;;;4903477;29;20404;-73
2020/12/06 16:40:43;;;;;;;9.45;3.97;;;5.30;99.90;;;;;;4905789;29;20021;-73
2020/12/06 16:43:09;;;;;;;9.90;4.28;;;5.20;99.90;;;;;;4910432;29;20398;-73
2020/12/06 16:45:35;;;;;;;8.15;4.05;;;5.20;99.90;;;;;;4907248;29;20785;-75
2020/12/06 16:48:00;;;;;;;13.07;4.80;;;5.20;99.90;;;;;;4906112;29;20435;-71
2020/12/06 16:50:26;;;;;;;8.18;4.28;;;5.30;99.90;;;;;;4906205;29;20028;-71
2020/12/06 16:52:52;;;;;;;10.38;4.03;;;5.20;99.90;;;;;;4915212;29;20042;-74
2020/12/06 16:55:19;;;;;;;15.95;4.40;;;5.20;99.90;;;;;;4919602;29;20075;-74
2020/12/06 16:57:45;;;;;;;8.52;4.40;;;5.20;99.90;;;;;;4919228;29;20023;-75
2020/12/06 17:00:12;;;;;;;8.73;4.20;;;5.20;99.90;;;;;;4919656;29;20119;-82
2020/12/06 17:02:39;;;;;;;7.20;4.03;;;5.60;99.90;;;;;;4919362;29;20040;-81
2020/12/06 17:05:07;;;;;;;11.55;4.18;;;5.70;99.90;;;;;;4919474;29;20047;-80
2020/12/06 17:07:33;;;;;;;12.05;4.18;;;5.50;99.90;;;;;;4917980;29;20055;-80
2020/12/06 17:10:03;;;;;;;11.07;4.43;;;5.40;99.90;;;;;;4919607;29;20079;-84
2020/12/06 17:12:30;;;;;;;7.00;4.23;;;5.30;99.90;;;;;;4919489;29;20024;-80
2020/12/06 17:14:55;;;;;;;11.23;4.53;;;5.30;99.90;;;;;;4919407;29;20066;-82
2020/12/06 17:17:21;;;;;;;13.05;5.32;;;5.20;99.90;;;;;;4919472;29;20064;-82
2020/12/06 17:19:47;;;;;;;7.30;4.22;;;5.20;99.90;;;;;;4919151;29;20064;-82
2020/12/06 17:22:13;;;;;;;7.95;4.53;;;5.20;99.90;;;;;;4919564;29;20020;-81
2020/12/06 17:24:40;;;;;;;8.35;4.65;;;5.20;99.90;;;;;;4919391;29;20399;-81
2020/12/06 17:27:10;;;;;;;11.52;4.70;;;5.20;99.90;;;;;;4918854;29;20483;-81
2020/12/06 17:29:39;;;;;;;10.85;4.68;;;5.20;99.90;;;;;;4917436;29;20119;-80
2020/12/06 17:32:06;;;;;;;11.48;4.72;;;5.30;99.90;;;;;;4919056;29;20031;-81
2020/12/06 17:34:32;;;;;;;10.85;4.80;;;5.30;99.90;;;;;;4918730;29;20075;-78
2020/12/06 17:37:00;;;;;;;11.32;4.85;;;5.20;99.90;;;;;;4918466;29;20621;-83
2020/12/06 17:39:26;;;;;;;11.23;4.60;;;5.20;99.90;;;;;;4918695;29;20028;-82
2020/12/06 17:41:54;;;;;;;12.60;5.00;;;5.20;99.90;;;;;;4918377;29;20035;-78
2020/12/06 17:44:20;;;;;;;9.27;4.60;;;5.20;99.90;;;;;;4915516;29;20040;-85
2020/12/06 17:46:46;;;;;;;11.82;4.93;;;5.20;99.90;;;;;;4918490;29;20036;-80
2020/12/06 17:49:12;;;;;;;9.55;4.50;;;5.20;99.90;;;;;;4918818;29;20031;-78
2020/12/06 17:51:38;;;;;;;8.73;4.38;;;5.20;99.90;;;;;;4911528;29;20067;-80
2020/12/06 17:54:04;;;;;;;8.10;4.13;;;5.20;99.90;;;;;;4904397;29;20485;-78
2020/12/06 17:56:30;;;;;;;9.80;3.95;;;5.20;99.90;;;;;;4917894;29;20456;-79
2020/12/06 17:58:56;;;;;;;6.38;3.78;;;5.20;99.90;;;;;;4917848;29;20104;-80
2020/12/06 18:01:22;;;;;;;10.55;3.92;;;5.20;99.90;;;;;;4917746;29;20462;-80
2020/12/06 18:03:48;;;;;;;8.38;3.95;;;5.30;99.90;;;;;;4906860;29;20080;-78
2020/12/06 18:06:19;;;;;;;5.75;3.78;;;5.20;99.90;;;;;;4914782;29;20032;-79
2020/12/06 18:08:45;;;;;;;8.35;3.90;;;5.30;99.90;;;;;;4908617;29;20032;-80
2020/12/06 18:11:14;;;;;;;4.90;3.05;;;5.30;99.90;;;;;;4911872;29;20036;-81
2020/12/06 18:13:41;;;;;;;3.90;3.08;;;5.30;99.90;;;;;;4906928;29;20099;-79
2020/12/06 18:16:06;;;;;;;8.45;3.35;;;5.30;99.90;;;;;;4917691;29;20033;-78